createdAt,value
2019-01-09T00:01:52.383Z,-0.52
2019-01-09T00:04:20.649Z,-0.47
2019-01-09T00:06:49.021Z,-0.49
2019-01-09T00:09:17.433Z,-0.56
2019-01-09T00:11:46.253Z,-0.56
2019-01-09T00:14:14.527Z,-0.58
2019-01-09T00:16:42.975Z,-0.48
2019-01-09T00:19:11.315Z,-0.47
2019-01-09T00:21:39.624Z,-0.56
2019-01-09T00:24:08.030Z,-0.57
2019-01-09T00:26:36.270Z,-0.57
2019-01-09T00:29:04.595Z,-0.60
2019-01-09T00:31:32.972Z,-0.59
2019-01-09T00:34:01.239Z,-0.57
2019-01-09T00:36:29.485Z,-0.52
2019-01-09T00:38:57.909Z,-0.59
2019-01-09T00:41:26.251Z,-0.57
2019-01-09T00:43:54.717Z,-0.55
2019-01-09T00:46:23.188Z,-0.50
2019-01-09T00:48:51.568Z,-0.48
2019-01-09T00:51:20.631Z,-0.50
2019-01-09T00:53:48.947Z,-0.49
2019-01-09T00:56:17.278Z,-0.47
2019-01-09T00:58:45.628Z,-0.44
2019-01-09T01:01:14.266Z,-0.51
2019-01-09T01:04:00.398Z,-0.48
2019-01-09T01:06:46.599Z,-0.53
2019-01-09T01:09:37.224Z,-0.54
2019-01-09T01:12:23.380Z,-0.47
2019-01-09T01:15:09.504Z,-0.48
2019-01-09T01:18:03.196Z,-0.50
2019-01-09T01:20:46.477Z,-0.50
2019-01-09T01:23:34.123Z,-0.47
2019-01-09T01:26:30.629Z,-0.48
2019-01-09T01:29:04.540Z,-0.54
2019-01-09T01:31:36.825Z,-0.54
2019-01-09T01:34:12.124Z,-0.52
2019-01-09T01:36:52.016Z,-0.56
2019-01-09T01:39:48.508Z,-0.58
2019-01-09T01:42:36.177Z,-0.52
2019-01-09T01:45:23.601Z,-0.53
2019-01-09T01:48:06.468Z,-0.57
2019-01-09T01:50:57.054Z,-0.61
2019-01-09T01:53:51.321Z,-0.53
2019-01-09T01:56:38.984Z,-0.55
2019-01-09T01:59:29.512Z,-0.61
2019-01-09T02:02:09.144Z,-0.61
2019-01-09T02:05:05.643Z,-0.68
2019-01-09T02:07:55.959Z,-0.64
2019-01-09T02:10:46.495Z,-0.55
2019-01-09T02:13:24.152Z,-0.64
2019-01-09T02:16:10.195Z,-0.67
2019-01-09T02:18:57.595Z,-0.68
2019-01-09T02:21:57.151Z,-0.67
2019-01-09T02:24:40.734Z,-0.67
2019-01-09T02:27:14.283Z,-0.69
2019-01-09T02:29:50.217Z,-0.66
2019-01-09T02:32:31.032Z,-0.68
2019-01-09T02:34:59.338Z,-0.62
2019-01-09T02:37:27.855Z,-0.53
2019-01-09T02:39:56.112Z,-0.61
2019-01-09T02:42:24.527Z,-0.62
2019-01-09T02:44:52.819Z,-0.67
2019-01-09T02:47:21.104Z,-0.62
2019-01-09T02:49:49.439Z,-0.63
2019-01-09T02:52:17.714Z,-0.63
2019-01-09T02:54:45.979Z,-0.63
2019-01-09T02:57:14.523Z,-0.59
2019-01-09T02:59:42.802Z,-0.60
2019-01-09T03:02:11.199Z,-0.60
2019-01-09T03:04:39.487Z,-0.59
2019-01-09T03:07:07.762Z,-0.63
2019-01-09T03:09:36.038Z,-0.62
2019-01-09T03:12:04.438Z,-0.56
2019-01-09T03:14:32.764Z,-0.62
2019-01-09T03:17:01.040Z,-0.56
2019-01-09T03:19:29.352Z,-0.61
2019-01-09T03:21:57.612Z,-0.65
2019-01-09T03:24:25.852Z,-0.67
2019-01-09T03:26:54.175Z,-0.56
2019-01-09T03:29:22.429Z,-0.61
2019-01-09T03:31:50.688Z,-0.63
2019-01-09T03:34:19.020Z,-0.62
2019-01-09T03:36:47.296Z,-0.62
2019-01-09T03:39:15.555Z,-0.61
2019-01-09T03:41:43.867Z,-0.66
2019-01-09T03:44:12.208Z,-0.59
2019-01-09T03:46:40.439Z,-0.61
2019-01-09T03:49:08.871Z,-0.64
2019-01-09T03:51:37.179Z,-0.59
2019-01-09T03:54:05.440Z,-0.61
2019-01-09T03:56:33.809Z,-0.62
2019-01-09T03:59:02.019Z,-0.62
2019-01-09T04:01:30.271Z,-0.62
2019-01-09T04:03:58.672Z,-0.56
2019-01-09T04:06:26.927Z,-0.67
2019-01-09T04:08:55.208Z,-0.65
2019-01-09T04:11:23.583Z,-0.71
2019-01-09T04:13:51.860Z,-0.76
2019-01-09T04:16:20.112Z,-0.78
2019-01-09T04:18:48.547Z,-0.80
2019-01-09T04:21:16.800Z,-0.84
2019-01-09T04:23:45.063Z,-0.85
2019-01-09T04:26:13.369Z,-0.90
2019-01-09T04:28:41.631Z,-0.85
2019-01-09T04:31:09.899Z,-0.94
2019-01-09T04:33:38.303Z,-0.97
2019-01-09T04:36:06.579Z,-0.99
2019-01-09T04:38:34.843Z,-1.01
2019-01-09T04:41:03.282Z,-1.01
2019-01-09T04:43:31.535Z,-0.94
2019-01-09T04:45:59.781Z,-1.00
2019-01-09T04:48:28.166Z,-1.09
2019-01-09T04:50:56.452Z,-1.07
2019-01-09T04:53:24.691Z,-1.09
2019-01-09T04:55:53.201Z,-1.08
2019-01-09T04:58:21.465Z,-1.18
2019-01-09T05:00:49.741Z,-1.16
2019-01-09T05:03:18.049Z,-1.21
2019-01-09T05:05:46.402Z,-1.13
2019-01-09T05:08:14.651Z,-1.25
2019-01-09T05:10:43.054Z,-1.20
2019-01-09T05:13:11.337Z,-1.25
2019-01-09T05:15:39.577Z,-1.29
2019-01-09T05:18:07.911Z,-1.30
2019-01-09T05:20:36.172Z,-1.27
2019-01-09T05:23:04.395Z,-1.31
2019-01-09T05:25:32.808Z,-1.20
2019-01-09T05:28:01.097Z,-1.29
2019-01-09T05:30:29.439Z,-1.38
2019-01-09T05:32:57.835Z,-1.40
2019-01-09T05:35:26.088Z,-1.43
2019-01-09T05:37:54.337Z,-1.40
2019-01-09T05:40:22.889Z,-1.41
2019-01-09T05:42:51.120Z,-1.35
2019-01-09T05:45:19.359Z,-1.43
2019-01-09T05:47:47.683Z,-1.47
2019-01-09T05:50:15.938Z,-1.47
2019-01-09T05:52:44.200Z,-1.44
2019-01-09T05:55:12.580Z,-1.51
2019-01-09T05:57:40.824Z,-1.41
2019-01-09T06:00:09.273Z,-1.45
2019-01-09T06:02:37.725Z,-1.50
2019-01-09T06:05:05.989Z,-1.57
2019-01-09T06:07:34.328Z,-1.40
2019-01-09T06:10:02.634Z,-1.50
2019-01-09T06:12:30.950Z,-1.51
2019-01-09T06:14:59.211Z,-1.49
2019-01-09T06:17:27.519Z,-1.54
2019-01-09T06:19:55.780Z,-1.55
2019-01-09T06:22:24.036Z,-1.55
2019-01-09T06:24:52.500Z,-1.40
2019-01-09T06:27:20.775Z,-1.54
2019-01-09T06:29:49.040Z,-1.59
2019-01-09T06:32:17.320Z,-1.63
2019-01-09T06:34:45.568Z,-1.57
2019-01-09T06:37:13.827Z,-1.61
2019-01-09T06:39:42.219Z,-1.65
2019-01-09T06:42:10.494Z,-1.63
2019-01-09T06:44:38.787Z,-1.59
2019-01-09T06:47:07.116Z,-1.64
2019-01-09T06:49:35.375Z,-1.62
2019-01-09T06:52:03.656Z,-1.64
2019-01-09T06:54:32.099Z,-1.57
2019-01-09T06:57:00.288Z,-1.64
2019-01-09T06:59:28.599Z,-1.70
2019-01-09T07:01:56.996Z,-1.65
2019-01-09T07:04:25.244Z,-1.74
2019-01-09T07:06:53.664Z,-1.71
2019-01-09T07:09:22.054Z,-1.74
2019-01-09T07:11:50.352Z,-1.71
2019-01-09T07:14:18.615Z,-1.69
2019-01-09T07:16:46.995Z,-1.74
2019-01-09T07:19:15.258Z,-1.79
2019-01-09T07:21:45.749Z,-1.83
2019-01-09T07:24:13.564Z,-1.73
2019-01-09T07:26:41.803Z,-1.79
2019-01-09T07:29:10.052Z,-1.84
2019-01-09T07:31:38.387Z,-1.83
2019-01-09T07:34:06.619Z,-1.83
2019-01-09T07:36:34.869Z,-1.89
2019-01-09T07:39:03.263Z,-1.90
2019-01-09T12:52:30.949Z,-0.60
2019-01-09T13:10:58.878Z,-0.61
2019-01-09T13:17:56.346Z,-0.67
2019-01-09T13:41:29.117Z,-0.72
2019-01-09T13:54:56.260Z,-0.83
2019-01-09T14:04:08.917Z,-0.85
2019-01-09T15:50:12.489Z,-1.20
2019-01-09T15:53:31.143Z,-1.30
2019-01-09T16:02:57.323Z,-1.59
2019-01-09T16:06:19.094Z,-1.31
2019-01-09T16:08:55.524Z,-1.21
2019-01-09T16:11:24.664Z,-1.29
2019-01-09T16:13:53.360Z,-1.39
2019-01-09T16:16:28.448Z,-1.11
2019-01-09T16:18:59.177Z,-1.26
2019-01-09T16:21:27.736Z,-1.47
2019-01-09T16:23:56.387Z,-1.48
2019-01-09T16:26:29.876Z,-1.41
2019-01-09T16:28:58.566Z,-1.38
2019-01-09T16:31:33.465Z,-1.40
2019-01-09T16:34:02.199Z,-1.18
2019-01-09T16:36:31.190Z,-1.33
2019-01-09T16:39:00.885Z,-1.33
2019-01-09T16:41:33.552Z,-1.43
2019-01-09T16:44:12.155Z,-1.48
2019-01-09T16:46:43.333Z,-1.59
2019-01-09T16:49:12.319Z,-1.47
2019-01-09T16:51:44.239Z,-1.51
2019-01-09T16:54:18.382Z,-1.53
2019-01-09T16:56:49.088Z,-1.44
2019-01-09T16:59:17.587Z,-1.47
2019-01-09T17:01:48.718Z,-1.48
2019-01-09T17:04:17.332Z,-1.53
2019-01-09T17:06:48.818Z,-1.61
2019-01-09T17:09:19.971Z,-1.59
2019-01-09T17:11:51.295Z,-1.62
2019-01-09T17:14:20.003Z,-1.49
2019-01-09T17:16:48.524Z,-1.62
2019-01-09T17:19:17.211Z,-1.62
2019-01-09T17:24:50.490Z,-1.51
2019-01-09T17:27:22.225Z,-1.63
2019-01-09T17:29:50.867Z,-1.61
2019-01-09T17:32:21.841Z,-1.44
2019-01-09T17:40:59.879Z,-1.74
2019-01-09T17:43:32.663Z,-1.74
2019-01-09T17:46:08.944Z,-1.64
2019-01-09T17:48:40.304Z,-1.72
2019-01-09T17:51:15.690Z,-1.68
2019-01-09T17:53:49.001Z,-1.72
2019-01-09T17:56:22.737Z,-1.58
2019-01-09T17:58:57.135Z,-1.84
2019-01-09T18:01:28.764Z,-1.78
2019-01-09T18:04:26.261Z,-1.85
2019-01-09T18:07:22.764Z,-1.79
2019-01-09T18:09:51.063Z,-1.79
2019-01-09T18:12:20.951Z,-1.85
2019-01-09T18:14:49.291Z,-1.85
2019-01-09T18:17:17.705Z,-1.85
2019-01-09T18:19:46.382Z,-1.88
2019-01-09T18:22:14.798Z,-1.80
2019-01-09T18:24:43.206Z,-1.86
2019-01-09T18:27:11.531Z,-1.89
2019-01-09T18:29:40.501Z,-1.91
2019-01-09T18:32:26.751Z,-1.92
2019-01-09T18:35:14.146Z,-2.05
2019-01-09T18:38:16.861Z,-2.02
2019-01-09T18:41:02.456Z,-2.10
2019-01-09T18:43:36.116Z,-1.97
2019-01-09T18:46:23.480Z,-2.07
2019-01-09T18:49:05.019Z,-2.13
2019-01-09T18:51:51.035Z,-2.15
2019-01-09T18:54:19.329Z,-2.13
2019-01-09T18:56:47.593Z,-2.08
2019-01-09T18:59:15.831Z,-2.09
2019-01-09T19:01:44.151Z,-2.00
2019-01-09T19:04:12.428Z,-2.14
2019-01-09T19:06:40.699Z,-2.13
2019-01-09T19:09:09.679Z,-2.13
2019-01-09T19:11:38.018Z,-2.13
2019-01-09T19:14:06.252Z,-2.13
2019-01-09T19:16:34.608Z,-2.18
2019-01-09T19:19:02.860Z,-2.24
2019-01-09T19:21:31.255Z,-2.24
2019-01-09T19:23:59.828Z,-2.19
2019-01-09T19:26:28.068Z,-2.18
2019-01-09T19:28:56.347Z,-2.27
2019-01-09T19:31:24.657Z,-2.30
2019-01-09T19:33:53.163Z,-2.29
2019-01-09T19:36:21.719Z,-2.25
2019-01-09T19:38:50.133Z,-2.26
2019-01-09T19:41:18.422Z,-2.29
2019-01-09T19:43:46.682Z,-2.25
2019-01-09T19:46:14.972Z,-2.16
2019-01-09T19:48:43.241Z,-2.05
2019-01-09T19:51:17.298Z,-2.12
2019-01-09T19:53:41.991Z,-2.20
2019-01-09T19:56:10.305Z,-2.10
2019-01-09T19:58:38.602Z,-1.87
2019-01-09T20:01:06.889Z,-1.92
2019-01-09T20:03:35.215Z,-1.87
2019-01-09T20:06:03.556Z,-1.94
2019-01-09T20:08:31.931Z,-1.95
2019-01-09T20:11:00.262Z,-1.85
2019-01-09T20:13:28.544Z,-1.85
2019-01-09T20:15:56.857Z,-1.73
2019-01-09T20:18:25.387Z,-1.92
2019-01-09T20:20:53.834Z,-1.76
2019-01-09T20:23:22.721Z,-1.89
2019-01-09T20:25:51.072Z,-1.82
2019-01-09T20:28:19.464Z,-1.77
2019-01-09T20:30:47.766Z,-1.85
2019-01-09T20:33:16.175Z,-1.73
2019-01-09T20:35:47.547Z,-1.82
2019-01-09T20:38:15.844Z,-1.75
2019-01-09T20:40:44.165Z,-2.03
2019-01-09T20:43:12.750Z,-1.78
2019-01-09T20:45:41.007Z,-1.86
2019-01-09T20:48:09.327Z,-2.08
2019-01-09T20:50:37.751Z,-2.12
2019-01-09T20:53:06.302Z,-2.03
2019-01-09T20:55:34.899Z,-1.90
2019-01-09T20:58:03.193Z,-2.14
2019-01-09T21:00:31.434Z,-2.09
2019-01-09T21:03:01.357Z,-2.09
2019-01-09T21:05:34.208Z,-2.13
2019-01-09T21:08:02.398Z,-2.18
2019-01-09T21:10:30.769Z,-2.31
2019-01-09T21:12:59.404Z,-1.96
2019-01-09T21:15:27.611Z,-2.13
2019-01-09T21:17:55.951Z,-2.02
2019-01-09T21:20:24.809Z,-2.07
2019-01-09T21:22:56.208Z,-2.08
2019-01-09T21:25:24.759Z,-1.96
2019-01-09T21:28:02.927Z,-2.08
2019-01-09T21:30:31.159Z,-2.16
2019-01-09T21:33:03.576Z,-2.42
2019-01-09T21:35:32.107Z,-2.11
2019-01-09T21:38:00.873Z,-2.26
2019-01-09T21:40:29.569Z,-2.16
2019-01-09T21:42:57.883Z,-2.28
2019-01-09T21:45:26.187Z,-2.18
2019-01-09T21:47:57.093Z,-2.23
2019-01-09T21:50:26.971Z,-2.22
2019-01-09T21:52:55.271Z,-2.37
2019-01-09T21:55:23.531Z,-2.59
2019-01-09T21:57:51.796Z,-2.36
2019-01-09T22:00:21.217Z,-2.34
2019-01-09T22:02:49.500Z,-2.47
2019-01-09T22:05:17.882Z,-2.47
2019-01-09T22:07:46.265Z,-2.58
2019-01-09T22:10:16.036Z,-2.43
2019-01-09T22:12:44.313Z,-2.62
2019-01-09T22:15:12.938Z,-2.40
2019-01-09T22:17:41.214Z,-2.39
2019-01-09T22:20:09.993Z,-2.56
2019-01-09T22:22:38.410Z,-2.58
2019-01-09T22:25:07.302Z,-2.63
2019-01-09T22:27:35.670Z,-2.49
2019-01-09T22:30:04.229Z,-2.47
2019-01-09T22:32:32.538Z,-2.57
2019-01-09T22:35:00.885Z,-2.60
2019-01-09T22:37:29.249Z,-2.71
2019-01-09T22:39:57.519Z,-2.92
2019-01-09T22:42:25.764Z,-2.72
2019-01-09T22:44:54.203Z,-2.74
2019-01-09T22:47:22.458Z,-2.92
2019-01-09T22:49:50.734Z,-3.02
2019-01-09T22:52:19.181Z,-2.72
2019-01-09T22:54:47.411Z,-3.08
2019-01-09T22:57:15.701Z,-3.28
2019-01-09T22:59:44.007Z,-2.95
2019-01-09T23:02:12.480Z,-3.04
2019-01-09T23:04:40.759Z,-2.81
2019-01-09T23:07:09.280Z,-2.70
2019-01-09T23:09:37.540Z,-2.81
2019-01-09T23:12:05.809Z,-2.94
2019-01-09T23:14:34.271Z,-2.79
2019-01-09T23:17:02.561Z,-2.87
2019-01-09T23:19:30.991Z,-2.84
2019-01-09T23:21:59.273Z,-3.07
2019-01-09T23:24:27.531Z,-3.06
2019-01-09T23:26:55.855Z,-3.22
2019-01-09T23:29:24.266Z,-3.35
2019-01-09T23:31:52.565Z,-3.33
2019-01-09T23:34:20.819Z,-3.07
2019-01-09T23:36:49.129Z,-3.39
2019-01-09T23:39:17.440Z,-3.27
2019-01-09T23:41:45.686Z,-3.39
2019-01-09T23:44:14.072Z,-3.55
2019-01-09T23:46:42.346Z,-3.40
2019-01-09T23:49:10.603Z,-3.17
2019-01-09T23:51:38.941Z,-3.57
2019-01-09T23:54:07.215Z,-3.41
2019-01-09T23:56:35.475Z,-3.58
2019-01-09T23:59:03.897Z,-3.56
